Big Bear Station Historical Data
Daily Summary for November 24, 2017 Units:  English    Metric   Both
« Previous Day
Next Day »
Daily Weekly Monthly Yearly Custom
  High: Low: Average:
Temperature: 68.2 °F 36.0 °F 49.1 °F
Dew Point: 34.1 °F 13.4 °F 28.6 °F
Humidity: 78 % 16 % 49 %
Wind Speed: 5.8 mph 0.0 mph 0.5 mph
Wind Gust: -999.0 mph - -
Wind:- - WSW
Pressure: 30.27 in 30.20 in -
Precipitation: 0.00 in    
Historical Graphs
 
 
Tabular Data for November 24, 2017
Time Temperature Dew Point Pressure Wind Wind Speed Wind Gust Humidity Rainfall Rate (Hourly)
00:23 38.1 °F 26.6 °F 30.27 in Calm   -999.0 mph 63 % 0 in
00:39 37.6 °F 28.3 °F 30.27 in Calm   -999.0 mph 69 % 0 in
00:54 37.8 °F 28.5 °F 30.26 in Calm   -999.0 mph 69 % 0 in
01:09 37.2 °F 29.7 °F 30.26 in Calm   -999.0 mph 74 % 0 in
01:39 36.9 °F 29.4 °F 30.26 in Calm   -999.0 mph 74 % 0 in
02:10 37.0 °F 28.8 °F 30.25 in Calm   -999.0 mph 72 % 0 in
02:25 36.5 °F 29.0 °F 30.25 in Calm   -999.0 mph 74 % 0 in
02:40 36.3 °F 29.8 °F 30.25 in Calm   -999.0 mph 77 % 0 in
02:55 36.5 °F 30.0 °F 30.25 in Calm   -999.0 mph 77 % 0 in
03:11 36.7 °F 28.9 °F 30.24 in Calm   -999.0 mph 73 % 0 in
03:26 36.3 °F 28.5 °F 30.24 in Calm   -999.0 mph 73 % 0 in
03:41 36.1 °F 29.6 °F 30.24 in Calm   -999.0 mph 77 % 0 in
03:56 36.3 °F 30.1 °F 30.23 in Calm   -999.0 mph 78 % 0 in
04:11 36.5 °F 29.3 °F 30.23 in Calm   -999.0 mph 75 % 0 in
04:27 36.1 °F 26.9 °F 30.23 in Calm   -999.0 mph 69 % 0 in
04:42 36.0 °F 28.8 °F 30.23 in Calm   -999.0 mph 75 % 0 in
04:57 36.5 °F 27.6 °F 30.23 in Calm   -999.0 mph 70 % 0 in
05:12 36.1 °F 23.5 °F 30.23 in Calm   -999.0 mph 60 % 0 in
05:28 36.5 °F 24.3 °F 30.23 in Calm   -999.0 mph 61 % 0 in
05:43 36.9 °F 27.0 °F 30.23 in Calm   -999.0 mph 67 % 0 in
05:58 37.8 °F 26.7 °F 30.23 in Calm   -999.0 mph 64 % 0 in
06:13 37.6 °F 22.4 °F 30.23 in Calm   -999.0 mph 54 % 0 in
06:28 37.2 °F 25.0 °F 30.23 in Calm   -999.0 mph 61 % 0 in
06:44 37.4 °F 22.3 °F 30.23 in Calm   -999.0 mph 54 % 0 in
06:59 37.8 °F 29.2 °F 30.23 in Calm   -999.0 mph 71 % 0 in
07:14 38.7 °F 26.8 °F 30.23 in Calm   -999.0 mph 62 % 0 in
07:29 38.7 °F 22.1 °F 30.24 in Calm   -999.0 mph 51 % 0 in
07:44 39.0 °F 22.4 °F 30.24 in Calm   -999.0 mph 51 % 0 in
08:00 39.7 °F 24.8 °F 30.24 in Calm   -999.0 mph 55 % 0 in
08:15 41.2 °F 26.2 °F 30.25 in Calm   -999.0 mph 55 % 0 in
08:30 43.9 °F 27.9 °F 30.25 in Calm   -999.0 mph 53 % 0 in
08:45 49.3 °F 26.6 °F 30.25 in Calm   -999.0 mph 41 % 0 in
09:00 48.9 °F 27.9 °F 30.25 in Calm   -999.0 mph 44 % 0 in
09:16 50.4 °F 25.1 °F 30.25 in Calm   -999.0 mph 37 % 0 in
09:31 53.2 °F 24.8 °F 30.25 in Calm   -999.0 mph 33 % 0 in
09:46 56.8 °F 23.2 °F 30.25 in Calm   -999.0 mph 27 % 0 in
10:01 59.7 °F 13.4 °F 30.25 in Calm   -999.0 mph 16 % 0 in
10:16 60.1 °F 23.2 °F 30.25 in Calm   -999.0 mph 24 % 0 in
10:32 63.3 °F 17.7 °F 30.25 in Calm   -999.0 mph 17 % 0 in
10:47 62.6 °F 25.3 °F 30.25 in Calm   -999.0 mph 24 % 0 in
11:02 64.4 °F 19.9 °F 30.25 in WNW 2.2 mph -999.0 mph 18 % 0 in
11:17 65.7 °F 18.2 °F 30.25 in Calm   -999.0 mph 16 % 0 in
11:33 66.2 °F 22.7 °F 30.24 in NW 3.2 mph -999.0 mph 19 % 0 in
11:48 67.3 °F 23.6 °F 30.24 in NW 2.7 mph -999.0 mph 19 % 0 in
12:04 67.8 °F 25.2 °F 30.23 in NNW 2.7 mph -999.0 mph 20 % 0 in
12:19 68.0 °F 26.6 °F 30.23 in Calm   -999.0 mph 21 % 0 in
12:34 68.2 °F 29.0 °F 30.22 in WNW 2.7 mph -999.0 mph 23 % 0 in
12:49 68.0 °F 30.9 °F 30.22 in NNW 3.7 mph -999.0 mph 25 % 0 in
13:04 66.9 °F 30.9 °F 30.22 in Calm   -999.0 mph 26 % 0 in
13:20 65.5 °F 34.1 °F 30.21 in NW 5.8 mph -999.0 mph 31 % 0 in
13:35 66.0 °F 31.1 °F 30.21 in NNW 2.2 mph -999.0 mph 27 % 0 in
13:50 66.0 °F 33.7 °F 30.20 in NNW 2.2 mph -999.0 mph 30 % 0 in
14:05 65.3 °F 33.9 °F 30.21 in North 4.7 mph -999.0 mph 31 % 0 in
14:20 64.9 °F 32.7 °F 30.21 in NNW 2.7 mph -999.0 mph 30 % 0 in
14:36 64.4 °F 33.1 °F 30.22 in West 1.7 mph -999.0 mph 31 % 0 in
14:51 64.0 °F 32.8 °F 30.22 in Calm   -999.0 mph 31 % 0 in
15:06 63.9 °F 31.8 °F 30.21 in NNE 1.1 mph -999.0 mph 30 % 0 in
15:21 63.5 °F 33.9 °F 30.21 in Calm   -999.0 mph 33 % 0 in
15:36 63.3 °F 33.7 °F 30.21 in Calm   -999.0 mph 33 % 0 in
15:52 62.4 °F 33.7 °F 30.21 in Calm   -999.0 mph 34 % 0 in
16:07 62.1 °F 34.1 °F 30.21 in ENE 1.1 mph -999.0 mph 35 % 0 in
16:22 60.8 °F 33.7 °F 30.21 in Calm   -999.0 mph 36 % 0 in
16:37 59.4 °F 33.8 °F 30.21 in Calm   -999.0 mph 38 % 0 in
16:53 57.6 °F 32.8 °F 30.21 in SE 1.7 mph -999.0 mph 39 % 0 in
17:08 56.3 °F 31.6 °F 30.21 in South 1.7 mph -999.0 mph 39 % 0 in
17:24 55.2 °F 31.3 °F 30.21 in SSW 2.2 mph -999.0 mph 40 % 0 in
17:39 54.0 °F 31.4 °F 30.22 in SSE 1.7 mph -999.0 mph 42 % 0 in
17:54 52.9 °F 31.0 °F 30.22 in Calm   -999.0 mph 43 % 0 in
18:09 51.8 °F 31.7 °F 30.22 in Calm   -999.0 mph 46 % 0 in
18:24 50.9 °F 31.4 °F 30.22 in Calm   -999.0 mph 47 % 0 in
18:40 50.0 °F 31.6 °F 30.22 in Calm   -999.0 mph 49 % 0 in
18:55 49.1 °F 31.3 °F 30.23 in Calm   -999.0 mph 50 % 0 in
19:10 48.6 °F 31.3 °F 30.23 in Calm   -999.0 mph 51 % 0 in
19:25 47.7 °F 30.9 °F 30.23 in Calm   -999.0 mph 52 % 0 in
19:40 46.9 °F 30.7 °F 30.23 in Calm   -999.0 mph 53 % 0 in
19:56 46.2 °F 30.9 °F 30.23 in Calm   -999.0 mph 55 % 0 in
20:11 45.5 °F 30.7 °F 30.25 in Calm   -999.0 mph 56 % 0 in
20:26 45.1 °F 29.9 °F 30.25 in Calm   -999.0 mph 55 % 0 in
20:41 45.3 °F 30.1 °F 30.25 in Calm   -999.0 mph 55 % 0 in
20:57 44.4 °F 30.5 °F 30.25 in Calm   -999.0 mph 58 % 0 in
21:12 44.1 °F 30.3 °F 30.26 in Calm   -999.0 mph 58 % 0 in
21:27 43.7 °F 30.3 °F 30.26 in Calm   -999.0 mph 59 % 0 in
21:42 43.7 °F 29.9 °F 30.26 in Calm   -999.0 mph 58 % 0 in
21:57 43.2 °F 29.0 °F 30.26 in Calm   -999.0 mph 57 % 0 in
22:13 43.2 °F 30.2 °F 30.26 in Calm   -999.0 mph 60 % 0 in
22:28 42.3 °F 31.0 °F 30.26 in Calm   -999.0 mph 64 % 0 in
22:43 42.1 °F 30.4 °F 30.26 in Calm   -999.0 mph 63 % 0 in
22:58 41.5 °F 30.2 °F 30.26 in Calm   -999.0 mph 64 % 0 in
23:13 41.7 °F 30.4 °F 30.26 in Calm   -999.0 mph 64 % 0 in
23:29 41.2 °F 30.3 °F 30.26 in Calm   -999.0 mph 65 % 0 in
23:44 41.2 °F 30.7 °F 30.26 in Calm   -999.0 mph 66 % 0 in
23:59 41.0 °F 30.5 °F 30.27 in Calm   -999.0 mph 66 % 0 in
Big Bear CA Weather
Compliments of Weather Underground - 1.5 mb